Route Details

Aircraft Information
Group: European Fleet
Types: A30F, A31F, B738
Route Data
Distance: 317nm
Duration: 1h 00m
Origin METAR: EDDK 160120Z AUTO 13003KT 100V160 CAVOK 19/14 Q1008 NOSIG
Dest. METAR: LOWL 160120Z AUTO 25007KT 9999 NSC 19/12 Q1011
Freight Data
(for Aug 16, 2022)
Load Factor:
65%
Manifested Cargo: 40,073lbs
Financial History
Total Freight: 103,553lbs
Average Load: 0lbs/flt
Fuel Used: 17,638lbs
Avg. Fuel Used: 0lbs/flt
Fuel Expense: $9,701
Avg. Fuel Expense: $0
Avg. Fuel Cost: $0/lbs
Total Gross Income: $238,172
Pilot Pay: $508
Total Expenses: $47,308
Total Revenue: $180,262
Average Revenue: $0

Capitol Logistics 545




EDDK
Cologne Bonn Airport
Cologne, DE
LOWL
Linz Hörsching Airport
Linz, AT

Activity Log

Date Flight Route Aircraft Duration
07/19/2022 CPX545 Not Available B738 1h 05m
07/18/2022 CPX545 KUMI7F KUMIK L603 TESGA DCT ESATI DCT KOMIB DCT ARMUT T703 DEXIT DEXI1K A30F 1h 08m